VTBS/BKK METAR and TAF weather

Enter ICAO airport designator
Station Type Date Time Source
VTBS METAR 2020/09/18 19:30 UTC NOAA

VTBS 181930Z 22005KT 9000 -RA FEW020 BKN100 26/25 Q1000 NOSIG


Station Type Date Time Source
VTBS Decoded METAR 2020/09/18 19:30 UTC NOAA

Chon Buri, Thailand (VTBS) 13-22N 100-59E 2M
Sep 18, 2020 - 03:30 PM EDT / 2020.09.18 1930 UTC
Wind: from the SW (220 degrees) at 6 MPH (5 KT):0
Visibility: 5 mile(s):0
Sky conditions: mostly cloudy
Weather: light rain
Temperature: 78 F (26 C)
Dew Point: 77 F (25 C)
Relative Humidity: 94%
Pressure (altimeter): 29.53 in. Hg (1000 hPa)
ob: VTBS 181930Z 22005KT 9000 -RA FEW020 BKN100 26/25 Q1000 NOSIG
cycle: 19

Station Type Date Time Source
VTBS TAF 2020/09/18 18:00 UTC NOAA

TAF VTBS 181700Z 1818/1924 24008KT 9000 FEW020 BKN100
TEMPO 1818/1824 22010KT 5000 TSRA FEW018CB SCT030 BKN100
BECMG 1900/1902 18010KT
TEMPO 1906/1912 22012KT 4000 TSRA FEW018CB SCT030 BKN100

Example: see airport list